Time;durP1;ratioP1;P1;durP2;ratioP2;P2;SDS_P1;SDS_P2;PMS_P1;PMS_P2;Temp;Humidity;BMP_temperature;BMP_pressure;BME280_temperature;BME280_humidity;BME280_pressure;Samples;Min_cycle;Max_cycle;Signal;HPM_P1;HPM_P2
2022/04/28 00:00:14;;;;;;;19.60;10.02;;;7.00;99.90;;;;;;5085391;28;20047;-81
2022/04/28 00:02:40;;;;;;;17.50;9.95;;;7.00;99.90;;;;;;5091604;28;20074;-80
2022/04/28 00:05:07;;;;;;;17.42;10.45;;;7.00;99.90;;;;;;5084479;28;20445;-81
2022/04/28 00:07:33;;;;;;;16.70;10.50;;;7.00;99.90;;;;;;5100605;28;20040;-81
2022/04/28 00:09:59;;;;;;;19.88;10.30;;;6.90;99.90;;;;;;5084526;28;20130;-82
2022/04/28 00:12:25;;;;;;;14.77;9.80;;;7.00;99.90;;;;;;5090303;28;20173;-81
2022/04/28 00:14:50;;;;;;;17.08;10.60;;;6.90;99.90;;;;;;5091937;28;20036;-81
2022/04/28 00:17:16;;;;;;;16.35;10.85;;;6.90;99.90;;;;;;5096496;28;20491;-81
2022/04/28 00:19:42;;;;;;;22.30;11.23;;;6.90;99.90;;;;;;5088768;28;20494;-82
2022/04/28 00:22:08;;;;;;;20.55;11.10;;;6.80;99.90;;;;;;5083926;28;20485;-81
2022/04/28 00:24:34;;;;;;;19.40;10.25;;;6.80;99.90;;;;;;5089651;28;20494;-82
2022/04/28 00:26:59;;;;;;;15.52;10.88;;;6.70;99.90;;;;;;5091350;28;20108;-81
2022/04/28 00:29:25;;;;;;;16.35;10.60;;;6.70;99.90;;;;;;5098352;28;20059;-82
2022/04/28 00:31:51;;;;;;;16.88;10.45;;;6.70;99.90;;;;;;5096985;28;20042;-82
2022/04/28 00:34:19;;;;;;;19.42;10.98;;;6.60;99.90;;;;;;5090692;28;20036;-82
2022/04/28 00:36:45;;;;;;;15.07;10.70;;;6.50;99.90;;;;;;5086531;28;20056;-82
2022/04/28 00:39:10;;;;;;;17.83;11.27;;;6.50;99.90;;;;;;5086478;28;20044;-82
2022/04/28 00:41:36;;;;;;;18.80;11.00;;;6.60;99.90;;;;;;5081270;28;20040;-82
2022/04/28 00:44:01;;;;;;;16.27;10.45;;;6.50;99.90;;;;;;5090160;28;20040;-81
2022/04/28 00:46:27;;;;;;;17.83;10.30;;;6.50;99.90;;;;;;5091708;28;20479;-82
2022/04/28 00:51:37;;;;;;;19.17;11.20;;;6.40;99.90;;;;;;5091288;28;20076;-82
2022/04/28 00:54:04;;;;;;;18.02;10.77;;;6.30;99.90;;;;;;5080210;28;20041;-81
2022/04/28 00:56:31;;;;;;;20.23;11.17;;;6.30;99.90;;;;;;5099716;27;20039;-81
2022/04/28 00:59:02;;;;;;;20.73;11.75;;;6.20;99.90;;;;;;5085647;28;20302;-81
2022/04/28 01:01:29;;;;;;;18.25;11.43;;;6.20;99.90;;;;;;5088269;28;20048;-82
2022/04/28 01:03:55;;;;;;;15.98;11.07;;;6.10;99.90;;;;;;5087027;28;20558;-81
2022/04/28 01:06:21;;;;;;;17.85;11.40;;;6.10;99.90;;;;;;5099567;28;20043;-81
2022/04/28 01:08:47;;;;;;;18.67;10.75;;;6.10;99.90;;;;;;5095361;28;20051;-83
2022/04/28 01:11:16;;;;;;;18.65;11.20;;;6.00;99.90;;;;;;5097926;28;20040;-81
2022/04/28 01:13:42;;;;;;;15.57;10.82;;;6.00;99.90;;;;;;5089491;28;20044;-80
2022/04/28 01:16:08;;;;;;;19.85;10.95;;;6.00;99.90;;;;;;5089754;28;20044;-81
2022/04/28 01:18:34;;;;;;;17.80;11.98;;;6.00;99.90;;;;;;5089347;28;20377;-81
2022/04/28 01:21:07;;;;;;;22.23;11.35;;;5.90;99.90;;;;;;5094868;28;20044;-81
2022/04/28 01:23:34;;;;;;;14.77;10.85;;;5.90;99.90;;;;;;5096837;28;20044;-82
2022/04/28 01:26:00;;;;;;;21.27;11.13;;;5.80;99.90;;;;;;5085931;28;20059;-81
2022/04/28 01:28:33;;;;;;;20.77;12.65;;;5.80;99.90;;;;;;5092491;28;20044;-81
2022/04/28 01:31:05;;;;;;;18.00;12.02;;;5.70;99.90;;;;;;5083359;28;20135;-81
2022/04/28 01:33:31;;;;;;;16.73;11.35;;;5.70;99.90;;;;;;5090324;28;20064;-82
2022/04/28 01:35:57;;;;;;;20.98;12.02;;;5.60;99.90;;;;;;5091159;28;20051;-81
2022/04/28 01:38:22;;;;;;;19.75;12.20;;;5.60;99.90;;;;;;5085157;28;20044;-81
2022/04/28 01:40:48;;;;;;;17.90;11.40;;;5.60;99.90;;;;;;5089325;28;20124;-81
2022/04/28 01:43:14;;;;;;;16.10;11.52;;;5.50;99.90;;;;;;5094034;28;20044;-81
2022/04/28 01:45:40;;;;;;;25.23;12.38;;;5.50;99.90;;;;;;5092309;28;20032;-81
2022/04/28 01:48:05;;;;;;;18.80;12.50;;;5.50;99.90;;;;;;5104361;28;20406;-81
2022/04/28 01:50:31;;;;;;;19.95;13.07;;;5.40;99.90;;;;;;5090842;28;20052;-81
2022/04/28 01:55:41;;;;;;;17.85;12.00;;;5.30;99.90;;;;;;5087788;28;20910;-82
2022/04/28 01:58:07;;;;;;;18.30;11.85;;;5.30;99.90;;;;;;5093782;28;20043;-81
2022/04/28 02:00:34;;;;;;;20.73;12.45;;;5.30;99.90;;;;;;5101433;28;20052;-81
2022/04/28 02:03:00;;;;;;;20.37;12.60;;;5.30;99.90;;;;;;5086600;28;20131;-82
2022/04/28 02:05:26;;;;;;;20.02;12.55;;;5.20;99.90;;;;;;5086798;28;21894;-82
2022/04/28 02:07:51;;;;;;;20.83;12.95;;;5.20;99.90;;;;;;5101641;28;20047;-82
2022/04/28 02:10:17;;;;;;;19.60;13.30;;;5.20;99.90;;;;;;5097439;28;20136;-81
2022/04/28 02:12:46;;;;;;;19.95;13.13;;;5.10;99.90;;;;;;5103928;28;20526;-82
2022/04/28 02:15:11;;;;;;;16.77;12.05;;;5.20;99.90;;;;;;5087304;28;20036;-81
2022/04/28 02:17:39;;;;;;;19.63;11.85;;;5.10;99.90;;;;;;5090255;28;20036;-81
2022/04/28 02:20:06;;;;;;;18.80;12.65;;;5.00;99.90;;;;;;5086246;28;20740;-81
2022/04/28 02:22:32;;;;;;;20.40;12.15;;;5.00;99.90;;;;;;5088483;28;20171;-80
2022/04/28 02:24:58;;;;;;;18.98;11.88;;;4.90;99.90;;;;;;5090367;28;20234;-81
2022/04/28 02:27:24;;;;;;;19.42;12.63;;;4.90;99.90;;;;;;5098789;28;20139;-81
2022/04/28 02:29:51;;;;;;;17.40;12.30;;;4.90;99.90;;;;;;5081118;28;20048;-81
2022/04/28 02:32:16;;;;;;;18.70;12.75;;;4.80;99.90;;;;;;5085737;28;20039;-81
2022/04/28 02:34:42;;;;;;;18.88;13.00;;;4.90;99.90;;;;;;5088323;28;20042;-82
2022/04/28 02:37:08;;;;;;;22.42;12.60;;;4.80;99.90;;;;;;5098570;28;20048;-81
2022/04/28 02:39:34;;;;;;;19.33;12.10;;;4.90;99.90;;;;;;5086695;28;20099;-81
2022/04/28 02:41:59;;;;;;;18.25;12.27;;;4.90;99.90;;;;;;5098746;28;20128;-81
2022/04/28 02:44:25;;;;;;;19.38;12.43;;;4.80;99.90;;;;;;5083204;28;20048;-82
2022/04/28 02:46:51;;;;;;;16.30;11.70;;;4.80;99.90;;;;;;5090135;28;20043;-82
2022/04/28 02:49:17;;;;;;;17.05;11.65;;;4.80;99.90;;;;;;5086216;28;20028;-83
2022/04/28 02:51:43;;;;;;;19.27;13.35;;;4.70;99.90;;;;;;5090733;28;20045;-80
2022/04/28 02:54:09;;;;;;;21.30;13.57;;;4.70;99.90;;;;;;5085040;28;20039;-81
2022/04/28 02:56:34;;;;;;;18.90;13.43;;;4.60;99.90;;;;;;5081837;28;20167;-82
2022/04/28 02:59:00;;;;;;;19.13;12.57;;;4.60;99.90;;;;;;5095896;28;20115;-82
2022/04/28 03:01:27;;;;;;;19.90;13.02;;;4.60;99.90;;;;;;5089735;28;20060;-81
2022/04/28 03:03:52;;;;;;;18.27;12.90;;;4.50;99.90;;;;;;5088283;28;20059;-81
2022/04/28 03:11:49;;;;;;;15.45;13.07;;;4.50;99.90;;;;;;5092642;28;20182;-81
2022/04/28 03:14:15;;;;;;;18.63;13.20;;;4.50;99.90;;;;;;5093030;28;20117;-81
2022/04/28 03:16:41;;;;;;;18.58;12.07;;;4.50;99.90;;;;;;5091448;28;20032;-82
2022/04/28 03:19:08;;;;;;;17.25;12.35;;;4.50;99.90;;;;;;5086724;28;20040;-80
2022/04/28 03:21:34;;;;;;;16.77;12.85;;;4.50;99.90;;;;;;5089188;28;20504;-79
2022/04/28 03:23:59;;;;;;;17.42;11.88;;;4.50;99.90;;;;;;5093136;28;20042;-80
2022/04/28 03:26:25;;;;;;;18.52;12.38;;;4.40;99.90;;;;;;5098719;27;20048;-80
2022/04/28 03:28:51;;;;;;;19.38;11.30;;;4.30;99.90;;;;;;5085856;28;20119;-81
2022/04/28 03:31:17;;;;;;;16.83;11.90;;;4.30;99.90;;;;;;5099664;28;20054;-80
2022/04/28 03:33:45;;;;;;;17.17;11.32;;;4.30;99.90;;;;;;5086697;28;20059;-82
2022/04/28 03:38:55;;;;;;;20.48;11.75;;;4.30;99.90;;;;;;5087768;28;20055;-80
2022/04/28 03:41:21;;;;;;;19.73;12.90;;;4.20;99.90;;;;;;5087314;28;20036;-82
2022/04/28 03:43:46;;;;;;;16.58;11.85;;;4.30;99.90;;;;;;5087932;28;20153;-82
2022/04/28 03:46:12;;;;;;;16.42;11.90;;;4.30;99.90;;;;;;5083973;28;20032;-81
2022/04/28 03:48:39;;;;;;;20.02;11.70;;;4.30;99.90;;;;;;5088220;28;20044;-81
2022/04/28 03:51:04;;;;;;;16.10;10.75;;;4.30;99.90;;;;;;5088869;28;20101;-81
2022/04/28 03:53:31;;;;;;;15.80;11.27;;;4.30;99.90;;;;;;5086887;28;20460;-82
2022/04/28 03:55:57;;;;;;;15.00;11.07;;;4.30;99.90;;;;;;5087733;28;20067;-81
2022/04/28 03:58:26;;;;;;;14.90;11.07;;;4.30;99.90;;;;;;5087364;28;20040;-81
2022/04/28 04:00:53;;;;;;;15.82;11.35;;;4.30;99.90;;;;;;5086792;28;20063;-80
2022/04/28 04:03:20;;;;;;;16.75;10.63;;;4.20;99.90;;;;;;5082749;28;20048;-81
2022/04/28 04:05:48;;;;;;;15.63;10.40;;;4.10;99.90;;;;;;5088273;28;20126;-81
2022/04/28 04:08:15;;;;;;;17.55;11.68;;;4.20;99.90;;;;;;5086342;28;20047;-81
2022/04/28 04:10:41;;;;;;;18.30;11.43;;;4.10;99.90;;;;;;5091804;28;20040;-81
2022/04/28 04:13:07;;;;;;;20.02;11.38;;;4.10;99.90;;;;;;5105818;28;20048;-80
2022/04/28 04:15:40;;;;;;;20.20;12.65;;;4.10;99.90;;;;;;5096264;28;20063;-80
2022/04/28 04:18:06;;;;;;;16.83;12.48;;;4.10;99.90;;;;;;5085476;28;20044;-81
2022/04/28 04:20:31;;;;;;;18.08;12.70;;;4.10;99.90;;;;;;5083275;28;20052;-80
2022/04/28 04:22:59;;;;;;;19.55;13.38;;;4.20;99.90;;;;;;5092049;28;20039;-81
2022/04/28 04:25:24;;;;;;;18.63;12.95;;;4.20;99.90;;;;;;5096024;28;20541;-82
2022/04/28 04:27:50;;;;;;;21.02;14.10;;;4.20;99.90;;;;;;5092539;28;20035;-80
2022/04/28 04:33:00;;;;;;;17.20;13.05;;;4.30;99.90;;;;;;5087172;28;20102;-81
2022/04/28 04:35:26;;;;;;;22.48;14.50;;;4.40;99.90;;;;;;5085661;28;20043;-80
2022/04/28 04:37:58;;;;;;;17.00;12.88;;;4.40;99.90;;;;;;5085047;28;20036;-81
2022/04/28 04:40:24;;;;;;;18.23;14.00;;;4.50;99.90;;;;;;5133557;22;20048;-81
2022/04/28 04:42:49;;;;;;;22.67;14.20;;;4.60;99.90;;;;;;5066203;28;20495;-81
2022/04/28 04:45:15;;;;;;;19.08;13.60;;;4.70;99.90;;;;;;5064370;28;20128;-79
2022/04/28 04:47:41;;;;;;;19.15;13.73;;;4.70;99.90;;;;;;5068660;28;20374;-80
2022/04/28 04:50:08;;;;;;;18.52;13.38;;;4.70;99.90;;;;;;5066309;28;20039;-81
2022/04/28 04:52:35;;;;;;;22.40;15.20;;;4.80;99.90;;;;;;5060751;28;20068;-80
2022/04/28 04:55:01;;;;;;;23.58;15.57;;;4.80;99.90;;;;;;5065995;28;20476;-81
2022/04/28 04:57:33;;;;;;;21.67;15.52;;;4.80;99.90;;;;;;5065679;28;20048;-80
2022/04/28 04:59:58;;;;;;;22.45;15.77;;;4.90;99.90;;;;;;5064421;28;20458;-80
2022/04/28 05:02:24;;;;;;;23.67;15.63;;;5.00;99.90;;;;;;5060383;28;20037;-80
2022/04/28 05:04:50;;;;;;;25.73;16.95;;;5.00;99.90;;;;;;5064978;28;20036;-81
2022/04/28 05:07:16;;;;;;;21.05;16.40;;;5.10;99.90;;;;;;5066515;28;20480;-81
2022/04/28 05:09:42;;;;;;;23.23;16.90;;;5.10;99.90;;;;;;5066112;28;20041;-80
2022/04/28 05:12:09;;;;;;;26.85;16.15;;;5.20;99.90;;;;;;5068241;28;20401;-82
2022/04/28 05:14:34;;;;;;;19.30;14.95;;;5.30;99.90;;;;;;5063568;28;20141;-80
2022/04/28 05:17:03;;;;;;;24.65;15.55;;;5.30;99.90;;;;;;5061127;28;20032;-80
2022/04/28 05:19:32;;;;;;;21.42;14.35;;;5.40;99.90;;;;;;5066339;28;20047;-81
2022/04/28 05:21:57;;;;;;;22.45;15.68;;;5.40;99.90;;;;;;5066109;28;20049;-81
2022/04/28 05:24:26;;;;;;;22.10;14.73;;;5.50;99.90;;;;;;5062463;28;20048;-80
2022/04/28 05:26:52;;;;;;;20.95;15.13;;;5.60;99.90;;;;;;5065162;28;20044;-81
2022/04/28 05:29:18;;;;;;;21.88;15.95;;;5.70;99.90;;;;;;5065150;28;20071;-79
2022/04/28 05:31:47;;;;;;;23.90;15.57;;;5.70;99.90;;;;;;5064346;28;20403;-81
2022/04/28 05:34:13;;;;;;;23.45;15.18;;;5.70;99.90;;;;;;5063682;28;20123;-79
2022/04/28 05:36:40;;;;;;;20.30;15.57;;;5.80;99.90;;;;;;5066358;28;20131;-80
2022/04/28 05:39:06;;;;;;;20.13;15.10;;;5.90;99.90;;;;;;5069848;28;20083;-81
2022/04/28 05:41:34;;;;;;;20.70;15.18;;;5.90;99.90;;;;;;5063419;28;20049;-80
2022/04/28 05:46:44;;;;;;;19.83;15.70;;;6.00;99.90;;;;;;5069173;28;19935;-81
2022/04/28 05:49:10;;;;;;;21.88;15.60;;;6.20;99.90;;;;;;5071375;28;20399;-78
2022/04/28 05:51:36;;;;;;;24.13;16.10;;;6.30;99.90;;;;;;5063351;28;20049;-82
2022/04/28 05:54:01;;;;;;;24.65;15.32;;;6.30;99.90;;;;;;5061220;28;20033;-81
2022/04/28 05:56:27;;;;;;;22.67;16.75;;;6.40;99.90;;;;;;5063545;28;20070;-82
2022/04/28 05:58:55;;;;;;;21.38;16.05;;;6.50;99.90;;;;;;5068684;28;20615;-80
2022/04/28 06:01:21;;;;;;;21.33;14.05;;;6.60;99.90;;;;;;5067221;28;20116;-80
2022/04/28 06:03:47;;;;;;;28.23;16.80;;;6.60;99.90;;;;;;5072819;28;20472;-81
2022/04/28 06:06:13;;;;;;;23.75;15.60;;;6.70;99.90;;;;;;5069526;28;20049;-80
2022/04/28 06:08:39;;;;;;;22.98;15.52;;;6.70;99.90;;;;;;5066110;28;20083;-81
2022/04/28 06:11:05;;;;;;;20.58;15.27;;;6.80;99.90;;;;;;5066209;28;20041;-81
2022/04/28 06:13:31;;;;;;;20.80;16.02;;;6.90;99.90;;;;;;5068444;28;20434;-82
2022/04/28 06:15:58;;;;;;;23.20;16.15;;;6.90;99.90;;;;;;5069695;28;20083;-80
2022/04/28 06:18:24;;;;;;;23.67;16.20;;;7.00;99.90;;;;;;5066883;28;20112;-80
2022/04/28 06:20:50;;;;;;;24.13;16.55;;;7.00;99.90;;;;;;5062252;28;20072;-80
2022/04/28 06:23:15;;;;;;;24.63;16.02;;;7.10;99.90;;;;;;5064111;28;20062;-80
2022/04/28 06:25:41;;;;;;;24.88;16.77;;;7.20;99.90;;;;;;5065710;28;20072;-80
2022/04/28 06:28:07;;;;;;;21.42;16.77;;;7.30;99.90;;;;;;5060579;28;20036;-79
2022/04/28 06:30:32;;;;;;;24.63;16.33;;;7.40;99.90;;;;;;5068100;28;20044;-81
2022/04/28 06:32:58;;;;;;;21.98;13.70;;;7.40;99.90;;;;;;5069865;28;20045;-80
2022/04/28 06:35:24;;;;;;;18.85;13.70;;;7.40;99.90;;;;;;5065779;28;20072;-81
2022/04/28 06:37:49;;;;;;;17.75;13.60;;;7.50;99.90;;;;;;5064318;28;20085;-80
2022/04/28 06:40:15;;;;;;;19.70;12.73;;;7.60;99.90;;;;;;5064189;28;20455;-79
2022/04/28 06:42:45;;;;;;;17.35;11.75;;;7.60;99.90;;;;;;5068379;28;20381;-79
2022/04/28 06:45:12;;;;;;;19.02;11.27;;;7.70;99.90;;;;;;5066851;28;20040;-79
2022/04/28 06:47:38;;;;;;;18.40;10.80;;;7.70;99.90;;;;;;5065609;28;20590;-80
2022/04/28 06:50:04;;;;;;;18.92;11.85;;;7.80;99.90;;;;;;5061107;28;20040;-80
2022/04/28 06:52:30;;;;;;;21.42;13.40;;;7.80;99.90;;;;;;5066370;28;20102;-80
2022/04/28 06:54:56;;;;;;;16.02;11.55;;;7.90;99.90;;;;;;5064895;28;20049;-79
2022/04/28 06:57:21;;;;;;;15.32;10.57;;;7.90;99.90;;;;;;5065242;28;20079;-79
2022/04/28 06:59:47;;;;;;;17.23;9.98;;;8.00;99.90;;;;;;5066176;28;20072;-80
2022/04/28 07:02:14;;;;;;;16.35;9.15;;;8.00;99.90;;;;;;5062394;28;20150;-80
2022/04/28 07:04:39;;;;;;;12.88;7.43;;;8.00;99.90;;;;;;5068175;28;20510;-80
2022/04/28 07:07:05;;;;;;;14.75;8.85;;;8.10;99.90;;;;;;5065137;28;20052;-79
2022/04/28 07:09:31;;;;;;;13.80;7.85;;;8.10;99.90;;;;;;5067885;28;20119;-80
2022/04/28 07:11:56;;;;;;;14.02;7.95;;;8.20;99.90;;;;;;5067701;28;20136;-80
2022/04/28 07:14:22;;;;;;;14.23;8.02;;;8.30;99.90;;;;;;5065372;28;20733;-81
2022/04/28 07:16:48;;;;;;;11.43;5.78;;;8.40;99.90;;;;;;5064528;28;20048;-80
2022/04/28 07:19:13;;;;;;;11.95;6.72;;;8.40;99.90;;;;;;5068708;28;20119;-79
2022/04/28 07:21:39;;;;;;;15.07;8.05;;;8.50;99.90;;;;;;5066746;28;20411;-80
2022/04/28 07:24:05;;;;;;;16.58;7.88;;;8.50;99.90;;;;;;5065984;28;20051;-80
2022/04/28 07:26:31;;;;;;;15.38;8.73;;;8.60;99.90;;;;;;5066456;28;20052;-80
2022/04/28 07:28:56;;;;;;;15.55;7.93;;;8.60;99.90;;;;;;5066562;28;20111;-78
2022/04/28 07:31:22;;;;;;;10.73;5.75;;;8.70;99.90;;;;;;5062451;28;20072;-81
2022/04/28 07:33:47;;;;;;;13.25;5.22;;;8.80;99.90;;;;;;5069881;28;20083;-80
2022/04/28 07:36:13;;;;;;;11.73;5.10;;;8.80;99.90;;;;;;5064981;28;20045;-84
2022/04/28 07:38:41;;;;;;;12.60;6.35;;;8.90;99.90;;;;;;5061919;28;20085;-80
2022/04/28 07:41:07;;;;;;;12.52;5.30;;;9.00;99.90;;;;;;5063379;28;20074;-82
2022/04/28 07:43:33;;;;;;;12.75;6.13;;;9.00;99.90;;;;;;5061684;28;20037;-83
2022/04/28 07:45:58;;;;;;;13.82;6.00;;;9.00;99.90;;;;;;5060184;28;20052;-82
2022/04/28 07:48:24;;;;;;;12.45;5.72;;;9.10;99.90;;;;;;5066763;28;20048;-83
2022/04/28 07:50:50;;;;;;;15.23;5.78;;;9.20;99.90;;;;;;5068257;28;20048;-84
2022/04/28 07:53:16;;;;;;;10.43;5.85;;;9.20;99.90;;;;;;5066461;28;20106;-83
2022/04/28 07:55:42;;;;;;;12.95;6.22;;;9.30;99.90;;;;;;5067420;28;20056;-83
2022/04/28 07:58:08;;;;;;;14.40;6.45;;;9.30;99.90;;;;;;5066698;28;20109;-83
2022/04/28 08:00:34;;;;;;;17.52;6.65;;;9.40;99.90;;;;;;5065100;28;20502;-81
2022/04/28 08:02:59;;;;;;;14.85;6.70;;;9.50;99.90;;;;;;5083755;28;20131;-83
2022/04/28 08:05:25;;;;;;;13.68;7.00;;;9.60;99.90;;;;;;5069128;28;20165;-83
2022/04/28 08:07:51;;;;;;;13.57;6.85;;;9.60;99.90;;;;;;5066752;28;20105;-80
2022/04/28 08:10:17;;;;;;;12.88;7.18;;;9.70;99.90;;;;;;5068559;28;20444;-79
2022/04/28 08:12:42;;;;;;;14.68;7.78;;;9.70;99.90;;;;;;5069112;28;20063;-80
2022/04/28 08:15:08;;;;;;;14.05;7.45;;;9.70;99.90;;;;;;5067370;28;20041;-79
2022/04/28 08:17:34;;;;;;;12.77;7.85;;;9.70;99.90;;;;;;5066939;28;20110;-79
2022/04/28 08:20:00;;;;;;;14.65;7.25;;;9.80;99.90;;;;;;5066128;28;20109;-79
2022/04/28 08:22:26;;;;;;;15.40;7.90;;;9.90;99.90;;;;;;5060788;28;20049;-81
2022/04/28 08:24:51;;;;;;;13.50;7.75;;;10.10;99.90;;;;;;5069614;28;20066;-79
2022/04/28 08:27:17;;;;;;;13.52;7.50;;;10.20;99.90;;;;;;5067368;28;20048;-79
2022/04/28 08:29:45;;;;;;;12.52;7.10;;;10.20;99.90;;;;;;5064714;28;20416;-80
2022/04/28 08:32:16;;;;;;;13.90;7.30;;;10.30;99.90;;;;;;5069304;28;20040;-76
2022/04/28 08:34:42;;;;;;;10.50;7.07;;;10.40;99.90;;;;;;5066839;28;20488;-79
2022/04/28 08:37:08;;;;;;;16.73;7.65;;;10.40;99.90;;;;;;5067658;28;20056;-76
2022/04/28 08:39:35;;;;;;;14.52;8.00;;;10.40;99.90;;;;;;5063161;28;20662;-78
2022/04/28 08:42:00;;;;;;;12.10;7.37;;;10.40;99.90;;;;;;5082760;28;20032;-81
2022/04/28 08:44:30;;;;;;;17.52;7.40;;;10.40;99.90;;;;;;5082448;28;20032;-84
2022/04/28 08:46:56;;;;;;;10.70;6.70;;;10.50;99.90;;;;;;5071897;28;20033;-79
2022/04/28 08:49:28;;;;;;;11.65;6.90;;;10.50;99.90;;;;;;5058274;28;20141;-81
2022/04/28 08:51:58;;;;;;;12.95;6.63;;;10.60;99.90;;;;;;5065393;28;20048;-82
2022/04/28 08:54:26;;;;;;;12.02;6.28;;;10.50;99.90;;;;;;5068752;28;20040;-83
2022/04/28 08:56:53;;;;;;;13.27;5.80;;;10.60;99.90;;;;;;5067731;28;20131;-80
2022/04/28 08:59:20;;;;;;;13.15;6.22;;;10.70;99.90;;;;;;5065418;28;20094;-81
2022/04/28 09:01:45;;;;;;;12.27;5.87;;;10.70;99.90;;;;;;5066622;28;20135;-81
2022/04/28 09:04:12;;;;;;;11.93;6.20;;;10.80;99.90;;;;;;5066955;28;20373;-80
2022/04/28 09:06:42;;;;;;;11.68;6.25;;;10.90;99.90;;;;;;5068906;28;20055;-81
2022/04/28 09:09:11;;;;;;;12.20;5.65;;;10.90;99.90;;;;;;5067215;28;20207;-81
2022/04/28 09:11:40;;;;;;;14.82;6.10;;;11.00;99.90;;;;;;5068308;28;20052;-81
2022/04/28 09:14:17;;;;;;;9.48;5.72;;;11.00;99.90;;;;;;5069711;28;20558;-81
2022/04/28 09:17:03;;;;;;;;;;;11.10;99.90;;;;;;5066907;28;20056;-81
2022/04/28 09:19:34;;;;;;;11.93;6.05;;;11.10;99.90;;;;;;5056806;28;19936;-83
2022/04/28 09:22:08;;;;;;;10.75;5.95;;;11.10;99.90;;;;;;5070044;28;20048;-82
2022/04/28 09:24:35;;;;;;;11.85;5.90;;;11.20;99.90;;;;;;5059033;28;20040;-81
2022/04/28 09:27:01;;;;;;;12.88;5.53;;;11.20;99.90;;;;;;5069815;28;20080;-81
2022/04/28 09:29:29;;;;;;;11.95;5.65;;;11.20;99.90;;;;;;5065227;28;20071;-80
2022/04/28 09:31:56;;;;;;;9.00;4.90;;;11.30;99.90;;;;;;5069331;28;20044;-79
2022/04/28 09:34:23;;;;;;;13.60;5.18;;;11.40;99.90;;;;;;5063720;28;20044;-80
2022/04/28 09:36:50;;;;;;;11.45;5.15;;;11.40;99.90;;;;;;5067172;28;20404;-82
2022/04/28 09:44:54;;;;;;;15.65;5.38;;;11.60;99.90;;;;;;5068279;28;20551;-83
2022/04/28 09:47:20;;;;;;;12.50;4.72;;;11.60;99.90;;;;;;5068995;28;20365;-79
2022/04/28 09:49:53;;;;;;;11.23;5.03;;;11.70;99.90;;;;;;5047951;28;20052;-81
2022/04/28 09:52:19;;;;;;;10.98;5.00;;;11.70;99.90;;;;;;5050724;28;20076;-82
2022/04/28 09:54:47;;;;;;;9.80;4.50;;;11.80;99.90;;;;;;5054934;28;20037;-81
2022/04/28 09:57:14;;;;;;;11.80;4.70;;;11.80;99.90;;;;;;5061286;28;20048;-79
2022/04/28 09:59:41;;;;;;;10.10;4.40;;;11.80;99.90;;;;;;5070369;28;20059;-79
2022/04/28 10:02:13;;;;;;;13.50;4.60;;;11.90;99.90;;;;;;5070657;28;20052;-81
2022/04/28 10:04:41;;;;;;;8.00;4.22;;;11.90;99.90;;;;;;5065691;28;20098;-81
2022/04/28 10:07:08;;;;;;;9.95;4.45;;;12.00;99.90;;;;;;5066985;28;20458;-84
2022/04/28 10:09:38;;;;;;;11.93;4.28;;;12.10;99.90;;;;;;5069174;28;20142;-80
2022/04/28 10:12:06;;;;;;;10.10;4.28;;;12.20;99.90;;;;;;5065033;28;20083;-82
2022/04/28 10:14:33;;;;;;;10.50;4.32;;;12.30;99.90;;;;;;5066872;28;20064;-83
2022/04/28 10:17:01;;;;;;;11.38;4.30;;;12.40;99.90;;;;;;5069633;28;20048;-85
2022/04/28 10:19:32;;;;;;;11.02;3.90;;;12.40;99.90;;;;;;5067496;28;20044;-80
2022/04/28 10:22:11;;;;;;;12.60;3.78;;;12.40;99.90;;;;;;5070178;28;20052;-79
2022/04/28 10:33:01;;;;;;;13.00;4.38;;;12.60;99.90;;;;;;5069181;28;20044;-80
2022/04/28 10:35:36;;;;;;;8.02;4.07;;;12.60;99.90;;;;;;5067390;28;20041;-81
2022/04/28 10:38:21;;;;;;;11.68;4.40;;;12.40;99.90;;;;;;5064500;28;20047;-79
2022/04/28 10:41:10;;;;;;;10.65;4.63;;;12.30;99.90;;;;;;5069929;28;20492;-79
2022/04/28 10:43:39;;;;;;;9.70;3.90;;;12.30;99.90;;;;;;5059845;28;20972;-79
2022/04/28 10:46:08;;;;;;;9.98;4.32;;;12.30;99.90;;;;;;5067978;28;20044;-79
2022/04/28 10:48:38;;;;;;;10.23;4.75;;;12.40;99.90;;;;;;5069866;28;20098;-78
2022/04/28 10:51:26;;;;;;;11.65;3.80;;;12.60;99.90;;;;;;5068164;28;20048;-81
2022/04/28 10:53:56;;;;;;;8.60;4.30;;;12.70;99.90;;;;;;5066840;28;20094;-82
2022/04/28 10:56:23;;;;;;;11.73;4.55;;;12.60;99.90;;;;;;5068115;28;20519;-81
2022/04/28 10:58:49;;;;;;;10.57;4.53;;;12.70;99.90;;;;;;5067762;28;20129;-80
2022/04/28 11:01:32;;;;;;;10.30;4.28;;;12.70;99.90;;;;;;5063475;28;20041;-80
2022/04/28 11:04:01;;;;;;;8.52;4.72;;;12.80;99.90;;;;;;5067556;28;20036;-83
2022/04/28 11:06:37;;;;;;;11.50;5.15;;;12.90;99.90;;;;;;5066918;28;20098;-83
2022/04/28 11:09:05;;;;;;;10.57;4.63;;;13.00;99.60;;;;;;5070137;28;20396;-85
2022/04/28 11:11:45;;;;;;;12.40;4.60;;;13.00;99.60;;;;;;5063991;28;20036;-87
2022/04/28 11:14:13;;;;;;;12.73;4.50;;;13.00;99.40;;;;;;5069362;28;20157;-85
2022/04/28 11:16:40;;;;;;;14.43;5.18;;;12.90;99.90;;;;;;5068446;28;20044;-84
2022/04/28 11:19:08;;;;;;;9.70;4.47;;;13.10;99.90;;;;;;5068371;28;20056;-83
2022/04/28 11:21:38;;;;;;;10.48;4.90;;;13.30;99.60;;;;;;5065030;28;20136;-86
2022/04/28 11:24:04;;;;;;;11.88;5.10;;;13.20;98.60;;;;;;5069855;28;20397;-76
2022/04/28 11:26:30;;;;;;;9.98;5.47;;;13.20;99.30;;;;;;5070215;28;20423;-87
2022/04/28 11:29:06;;;;;;;14.65;5.25;;;13.20;99.90;;;;;;5069212;28;20043;-85
2022/04/28 11:31:32;;;;;;;8.77;5.20;;;13.30;99.90;;;;;;5068422;28;20049;-86
2022/04/28 11:33:57;;;;;;;11.25;4.72;;;13.30;99.50;;;;;;5068464;28;20037;-85
2022/04/28 11:36:28;;;;;;;9.38;4.75;;;13.30;98.30;;;;;;5067330;28;20064;-87
2022/04/28 11:39:00;;;;;;;11.93;4.90;;;13.30;97.10;;;;;;5070650;28;20465;-86
2022/04/28 11:41:39;;;;;;;10.45;4.97;;;13.30;99.50;;;;;;5073090;28;20051;-87
2022/04/28 11:44:07;;;;;;;12.60;5.55;;;13.40;97.90;;;;;;5072235;28;20078;-87
2022/04/28 11:46:41;;;;;;;11.15;4.90;;;13.40;98.30;;;;;;5071906;28;20047;-87
2022/04/28 11:49:07;;;;;;;12.90;5.18;;;13.50;96.30;;;;;;5071032;28;20055;-88
2022/04/28 11:51:34;;;;;;;12.68;5.20;;;13.40;96.40;;;;;;5067514;28;20053;-87
2022/04/28 11:54:01;;;;;;;7.43;4.63;;;13.40;97.30;;;;;;5068486;28;20076;-87
2022/04/28 11:56:30;;;;;;;12.00;4.93;;;13.40;97.60;;;;;;5068044;28;20492;-77
2022/04/28 11:58:58;;;;;;;12.60;5.63;;;13.50;99.90;;;;;;5066034;28;20053;-80
2022/04/28 12:01:25;;;;;;;11.10;5.30;;;13.70;99.30;;;;;;5062892;28;20071;-80
2022/04/28 12:03:56;;;;;;;9.82;5.38;;;13.90;98.80;;;;;;5061931;28;20467;-79
2022/04/28 12:06:23;;;;;;;11.10;4.97;;;14.00;96.20;;;;;;5062926;28;20048;-76
2022/04/28 12:08:56;;;;;;;10.60;5.22;;;14.00;95.00;;;;;;5061086;28;20044;-81
2022/04/28 12:14:25;;;;;;;13.48;5.20;;;14.00;95.20;;;;;;5069194;28;20051;-83
2022/04/28 12:19:52;;;;;;;11.35;4.80;;;13.90;91.80;;;;;;5058779;28;20044;-81
2022/04/28 12:22:44;;;;;;;9.75;5.20;;;14.00;93.60;;;;;;5069595;28;20048;-81
2022/04/28 12:25:16;;;;;;;13.20;5.68;;;14.10;91.10;;;;;;5062802;28;20151;-77
2022/04/28 12:27:47;;;;;;;8.18;5.28;;;14.10;92.10;;;;;;5065054;28;20098;-78
2022/04/28 12:30:16;;;;;;;12.13;5.47;;;14.20;93.60;;;;;;5066544;28;20041;-79
2022/04/28 12:32:44;;;;;;;9.05;5.25;;;14.20;92.90;;;;;;5059214;28;20040;-77
2022/04/28 12:35:19;;;;;;;10.25;4.90;;;14.30;94.40;;;;;;5065375;28;20076;-77
2022/04/28 12:37:44;;;;;;;12.55;5.65;;;14.30;91.50;;;;;;5066031;28;20048;-72
2022/04/28 12:40:19;;;;;;;10.95;5.50;;;14.30;90.70;;;;;;5062320;28;20067;-76
2022/04/28 12:42:46;;;;;;;12.02;5.63;;;14.30;91.60;;;;;;5057686;28;20056;-78
2022/04/28 12:45:12;;;;;;;10.40;5.20;;;14.40;92.80;;;;;;5064860;28;20543;-79
2022/04/28 12:47:39;;;;;;;13.48;5.53;;;14.60;93.60;;;;;;5071485;28;20128;-77
2022/04/28 12:50:25;;;;;;;14.32;5.70;;;14.60;90.80;;;;;;5071357;28;20044;-79
2022/04/28 12:52:52;;;;;;;11.55;5.82;;;14.60;87.10;;;;;;5070551;28;20055;-80
2022/04/28 12:55:19;;;;;;;8.63;5.15;;;14.60;92.70;;;;;;5070283;28;20066;-82
2022/04/28 12:57:45;;;;;;;;;;;14.60;92.30;;;;;;5073478;28;20060;-87
2022/04/28 13:00:12;;;;;;;11.10;5.60;;;14.60;93.10;;;;;;5074523;28;19963;-81
2022/04/28 13:02:46;;;;;;;10.85;5.70;;;14.60;93.30;;;;;;5080567;28;20043;-76
2022/04/28 13:05:17;;;;;;;12.00;5.53;;;14.60;90.00;;;;;;5085879;28;20092;-80
2022/04/28 13:07:43;;;;;;;11.77;5.20;;;14.60;88.70;;;;;;5087369;28;20040;-83
2022/04/28 13:10:12;;;;;;;14.75;5.85;;;14.60;88.30;;;;;;5081702;28;20127;-83
2022/04/28 13:12:38;;;;;;;13.48;5.68;;;14.70;93.80;;;;;;5079450;28;20106;-83
2022/04/28 13:15:05;;;;;;;11.40;5.38;;;14.70;90.90;;;;;;5072348;28;20076;-84
2022/04/28 13:17:32;;;;;;;15.52;5.60;;;14.70;89.50;;;;;;5072028;28;20044;-82